createdAt,value
2022-08-30T02:30:36.884Z,0
2022-08-30T02:31:36.845Z,0
2022-08-30T02:32:36.887Z,0
2022-08-30T02:33:36.872Z,0
2022-08-30T02:34:36.857Z,0
2022-08-30T02:35:36.848Z,0
2022-08-30T02:36:36.854Z,0
2022-08-30T02:37:36.870Z,0
2022-08-30T02:38:36.854Z,0
2022-08-30T02:39:36.860Z,0
2022-08-30T02:40:37.008Z,0
2022-08-30T02:41:36.860Z,0
2022-08-30T02:42:36.864Z,0
2022-08-30T02:43:36.863Z,0
2022-08-30T02:44:36.850Z,0
2022-08-30T02:45:36.916Z,0
2022-08-30T02:46:36.852Z,0
2022-08-30T02:47:36.872Z,0
2022-08-30T02:48:36.875Z,0
2022-08-30T02:49:36.857Z,0
2022-08-30T02:50:36.859Z,0
2022-08-30T02:51:36.856Z,0
2022-08-30T02:52:36.878Z,0
2022-08-30T02:53:36.881Z,0
2022-08-30T02:54:36.860Z,0
2022-08-30T02:55:36.850Z,0
2022-08-30T02:56:36.855Z,0
2022-08-30T02:57:36.947Z,0
2022-08-30T02:58:36.856Z,0
2022-08-30T02:59:36.854Z,0
2022-08-30T03:00:36.860Z,0
2022-08-30T03:01:36.900Z,0
2022-08-30T03:02:36.875Z,0
2022-08-30T03:03:36.901Z,0
2022-08-30T03:04:36.858Z,0
2022-08-30T03:05:39.821Z,0
2022-08-30T03:06:36.853Z,0
2022-08-30T03:07:36.876Z,0
2022-08-30T03:08:36.853Z,0
2022-08-30T03:09:36.857Z,0
2022-08-30T03:10:36.851Z,0
2022-08-30T03:11:36.858Z,0
2022-08-30T03:12:36.872Z,0
2022-08-30T03:13:36.849Z,0
2022-08-30T03:14:36.848Z,0
2022-08-30T03:15:36.871Z,0
2022-08-30T03:16:36.894Z,0
2022-08-30T03:17:36.853Z,0
2022-08-30T03:18:36.853Z,0
2022-08-30T03:19:36.839Z,0
2022-08-30T03:20:36.840Z,0
2022-08-30T03:21:36.834Z,0
2022-08-30T03:22:36.871Z,0
2022-08-30T03:23:36.834Z,0
2022-08-30T03:24:36.839Z,0
2022-08-30T03:25:36.849Z,0
2022-08-30T03:26:36.839Z,0
2022-08-30T03:27:36.851Z,0
2022-08-30T03:28:36.856Z,0
2022-08-30T03:29:36.846Z,0
2022-08-30T03:30:36.853Z,0
2022-08-30T03:31:40.728Z,0
2022-08-30T03:32:36.879Z,0
2022-08-30T03:33:36.872Z,0
2022-08-30T03:34:36.858Z,0
2022-08-30T03:35:36.871Z,0
2022-08-30T03:36:36.860Z,0
2022-08-30T03:37:36.887Z,0
2022-08-30T03:38:36.861Z,0
2022-08-30T03:39:36.873Z,0
2022-08-30T03:40:36.972Z,0
2022-08-30T03:41:36.871Z,0
2022-08-30T03:42:36.890Z,0
2022-08-30T03:44:41.298Z,1
2022-08-30T03:45:40.270Z,1
2022-08-30T03:46:40.113Z,3
2022-08-30T03:47:41.056Z,5
2022-08-30T03:48:40.117Z,5
2022-08-30T03:49:40.114Z,7
2022-08-30T03:50:40.125Z,9
2022-08-30T03:51:40.109Z,11
2022-08-30T03:52:40.126Z,12
2022-08-30T03:53:40.102Z,16
2022-08-30T03:54:40.120Z,20
2022-08-30T03:55:40.099Z,23
2022-08-30T03:56:40.109Z,27
2022-08-30T03:57:40.123Z,33
2022-08-30T03:58:40.105Z,38
2022-08-30T03:59:40.120Z,46
2022-08-30T04:00:40.169Z,53
2022-08-30T04:01:40.104Z,62
2022-08-30T04:02:40.194Z,71
2022-08-30T04:03:40.121Z,82
2022-08-30T04:04:40.113Z,94
2022-08-30T04:05:40.149Z,105
2022-08-30T04:06:40.099Z,116
2022-08-30T04:07:40.124Z,129
2022-08-30T04:08:40.104Z,129
2022-08-30T04:09:40.136Z,158
2022-08-30T04:10:40.105Z,176
2022-08-30T04:11:40.101Z,193
2022-08-30T04:12:40.198Z,213
2022-08-30T04:13:40.097Z,232
2022-08-30T04:14:40.101Z,250
2022-08-30T04:15:40.111Z,272
2022-08-30T04:16:40.142Z,293
2022-08-30T04:17:40.123Z,313
2022-08-30T04:18:40.118Z,339
2022-08-30T04:19:40.098Z,361
2022-08-30T04:20:40.102Z,385
2022-08-30T04:21:42.979Z,405
2022-08-30T04:22:40.120Z,429
2022-08-30T04:23:40.099Z,457
2022-08-30T04:24:40.093Z,477
2022-08-30T04:25:40.101Z,499
2022-08-30T04:26:40.084Z,519
2022-08-30T04:27:40.114Z,543
2022-08-30T04:28:40.111Z,567
2022-08-30T04:29:40.093Z,591
2022-08-30T04:30:40.087Z,615
2022-08-30T04:31:40.243Z,639
2022-08-30T04:32:40.105Z,663
2022-08-30T04:33:40.101Z,683
2022-08-30T04:34:40.076Z,698
2022-08-30T04:35:40.085Z,702
2022-08-30T04:36:40.105Z,705
2022-08-30T04:37:40.092Z,720
2022-08-30T04:38:40.080Z,740
2022-08-30T04:39:40.081Z,759
2022-08-30T04:40:40.138Z,772
2022-08-30T04:41:40.079Z,794
2022-08-30T04:42:40.117Z,818
2022-08-30T04:43:40.079Z,838
2022-08-30T04:44:40.074Z,857
2022-08-30T04:45:40.120Z,871
2022-08-30T04:46:44.521Z,895
2022-08-30T04:47:40.110Z,914
2022-08-30T04:48:40.121Z,934
2022-08-30T04:49:40.095Z,954
2022-08-30T04:50:40.093Z,982
2022-08-30T04:51:40.091Z,1006
2022-08-30T04:52:40.101Z,1052
2022-08-30T04:53:40.084Z,1113
2022-08-30T04:54:40.087Z,1168
2022-08-30T04:55:40.088Z,1190
2022-08-30T04:56:40.099Z,1196
2022-08-30T04:57:40.096Z,1198
2022-08-30T04:58:40.085Z,1205
2022-08-30T04:59:40.084Z,1201
2022-08-30T05:00:40.149Z,1198
2022-08-30T05:01:45.222Z,1227
2022-08-30T05:02:40.178Z,1268
2022-08-30T05:03:40.107Z,1308
2022-08-30T05:04:40.094Z,1382
2022-08-30T05:05:40.083Z,1467
2022-08-30T05:06:40.084Z,1516
2022-08-30T05:07:40.335Z,1546
2022-08-30T05:08:40.084Z,1546
2022-08-30T05:09:40.094Z,1515
2022-08-30T05:10:40.081Z,1480
2022-08-30T05:11:40.082Z,1502
2022-08-30T05:12:40.079Z,1540
2022-08-30T05:13:40.094Z,1544
2022-08-30T05:14:40.089Z,1548
2022-08-30T05:15:40.087Z,1566
2022-08-30T05:16:40.241Z,1634
2022-08-30T05:17:40.105Z,1706
2022-08-30T05:18:40.093Z,1767
2022-08-30T05:19:40.087Z,1824
2022-08-30T05:20:40.075Z,1822
2022-08-30T05:21:40.093Z,1889
2022-08-30T05:22:40.104Z,1981
2022-08-30T05:23:40.094Z,2018
2022-08-30T05:24:40.091Z,2073
2022-08-30T05:25:40.093Z,2152
2022-08-30T05:26:40.170Z,2213
2022-08-30T05:27:40.096Z,2256
2022-08-30T05:28:40.083Z,2287
2022-08-30T05:29:40.087Z,2318
2022-08-30T05:30:40.074Z,2351
2022-08-30T05:31:40.179Z,2386
2022-08-30T05:32:40.112Z,2392
2022-08-30T05:33:40.111Z,2362
2022-08-30T05:34:40.094Z,2434
2022-08-30T05:35:40.088Z,2480
2022-08-30T05:36:40.086Z,2488
2022-08-30T05:37:40.148Z,2512
2022-08-30T05:38:40.097Z,2538
2022-08-30T05:39:51.415Z,2560
2022-08-30T05:40:40.152Z,2580
2022-08-30T05:41:40.081Z,2608
2022-08-30T05:42:40.103Z,2630
2022-08-30T05:43:40.086Z,2656
2022-08-30T05:44:40.082Z,2700
2022-08-30T05:45:40.077Z,2807
2022-08-30T05:46:40.076Z,3953
2022-08-30T05:47:40.117Z,5736
2022-08-30T05:48:40.092Z,6939
2022-08-30T05:49:40.080Z,7433
2022-08-30T05:50:40.248Z,7369
2022-08-30T05:51:40.232Z,7807
2022-08-30T05:52:40.101Z,7848
2022-08-30T05:53:40.091Z,7975
2022-08-30T05:54:40.087Z,8034
2022-08-30T05:55:40.070Z,8159
2022-08-30T05:56:40.084Z,8622
2022-08-30T05:57:40.123Z,8537
2022-08-30T05:58:40.078Z,8633
2022-08-30T05:59:40.084Z,8616
2022-08-30T06:00:40.083Z,8655
2022-08-30T06:01:40.137Z,8871
2022-08-30T06:02:40.146Z,8954
2022-08-30T06:03:40.102Z,9046
2022-08-30T06:04:40.083Z,9151
2022-08-30T06:05:40.115Z,9179
2022-08-30T06:06:40.080Z,9322
2022-08-30T06:07:40.091Z,9505
2022-08-30T06:08:40.078Z,9505
2022-08-30T06:09:40.071Z,9566
2022-08-30T06:10:40.084Z,9652
2022-08-30T06:11:40.084Z,9542
2022-08-30T06:12:40.105Z,11250
2022-08-30T06:13:40.082Z,10471
2022-08-30T06:14:40.088Z,10403
2022-08-30T06:15:40.220Z,10344
2022-08-30T06:16:40.080Z,10421
2022-08-30T06:17:40.095Z,10644
2022-08-30T06:18:40.123Z,10675
2022-08-30T06:19:40.080Z,10950
2022-08-30T06:20:40.084Z,10915
2022-08-30T06:21:40.081Z,10939
2022-08-30T06:22:40.091Z,11118
2022-08-30T06:23:40.082Z,11143
2022-08-30T06:24:56.498Z,11197
2022-08-30T06:25:41.868Z,11324
2022-08-30T06:26:40.080Z,11516
2022-08-30T06:27:40.087Z,11543
2022-08-30T06:28:40.079Z,11606
2022-08-30T06:29:40.075Z,11654
2022-08-30T06:30:40.084Z,11639
2022-08-30T06:31:40.148Z,11634
2022-08-30T06:32:40.105Z,11682
2022-08-30T06:33:40.100Z,11706
2022-08-30T06:34:40.086Z,11772
2022-08-30T06:35:56.735Z,11840
2022-08-30T06:36:40.083Z,11840
2022-08-30T06:37:40.095Z,11958
2022-08-30T06:38:40.081Z,12096
2022-08-30T06:39:40.082Z,12270
2022-08-30T06:40:40.137Z,12474
2022-08-30T06:41:40.095Z,12443
2022-08-30T06:42:40.100Z,12583
2022-08-30T06:43:40.089Z,12605
2022-08-30T06:44:40.086Z,12710
2022-08-30T06:45:40.076Z,12841
2022-08-30T06:46:40.145Z,13094
2022-08-30T06:47:40.095Z,13245
2022-08-30T06:48:41.432Z,13744
2022-08-30T06:49:40.068Z,13713
2022-08-30T06:50:40.068Z,13768
2022-08-30T06:51:40.080Z,13934
2022-08-30T06:52:40.102Z,13975
2022-08-30T06:53:40.074Z,14076
2022-08-30T06:54:40.073Z,14047
2022-08-30T06:55:40.142Z,14017
2022-08-30T06:56:42.459Z,14133
2022-08-30T06:57:40.092Z,14196
2022-08-30T06:58:40.066Z,14104
2022-08-30T06:59:40.066Z,14526
2022-08-30T07:00:40.085Z,14839
2022-08-30T07:01:40.203Z,15073
2022-08-30T07:02:40.155Z,15532
2022-08-30T07:03:40.100Z,15606
2022-08-30T07:04:40.084Z,15643
2022-08-30T07:05:40.070Z,15751
2022-08-30T07:06:40.084Z,15904
2022-08-30T07:07:40.098Z,16081
2022-08-30T07:08:40.073Z,16081
2022-08-30T07:09:40.083Z,16303
2022-08-30T07:10:40.092Z,16717
2022-08-30T07:11:40.085Z,16563
2022-08-30T07:12:40.092Z,16352
2022-08-30T07:13:40.084Z,15914
2022-08-30T07:14:40.080Z,14996
2022-08-30T07:15:40.108Z,14303
2022-08-30T07:16:40.077Z,14037
2022-08-30T07:17:40.096Z,13824
2022-08-30T07:18:40.102Z,13707
2022-08-30T07:19:40.081Z,13221
2022-08-30T07:20:40.857Z,13534
2022-08-30T07:21:40.090Z,13565
2022-08-30T07:22:40.090Z,13573
2022-08-30T07:23:40.083Z,13624
2022-08-30T07:24:40.083Z,13562
2022-08-30T07:25:40.059Z,13554
2022-08-30T07:26:40.075Z,13182
2022-08-30T07:27:40.101Z,13654
2022-08-30T07:28:40.080Z,13165
2022-08-30T07:29:40.074Z,12749
2022-08-30T07:30:40.082Z,12594
2022-08-30T07:31:40.092Z,12730
2022-08-30T07:32:40.100Z,12729
2022-08-30T07:33:40.099Z,12789
2022-08-30T07:34:40.081Z,12813
2022-08-30T07:35:40.063Z,12869
2022-08-30T07:36:40.146Z,12673
2022-08-30T07:37:40.094Z,12950
2022-08-30T07:38:40.079Z,13097
2022-08-30T07:39:44.572Z,13199
2022-08-30T07:40:40.181Z,13330
2022-08-30T07:41:40.087Z,13300
2022-08-30T07:42:40.093Z,13055
2022-08-30T07:43:40.081Z,13081
2022-08-30T07:44:40.084Z,13366
2022-08-30T07:45:40.064Z,13724
2022-08-30T07:46:40.183Z,13647
2022-08-30T07:47:40.087Z,13641
2022-08-30T07:48:40.153Z,13733
2022-08-30T07:49:40.088Z,14041
2022-08-30T07:50:40.073Z,14216
2022-08-30T07:51:40.082Z,14244
2022-08-30T07:52:40.093Z,14240
2022-08-30T07:53:40.088Z,14284
2022-08-30T07:54:40.071Z,14465
2022-08-30T07:55:40.071Z,14502
2022-08-30T07:56:40.077Z,14568
2022-08-30T07:57:40.081Z,14682
2022-08-30T07:58:40.073Z,14808
2022-08-30T07:59:40.128Z,14817
2022-08-30T08:00:40.062Z,14819
2022-08-30T08:01:40.118Z,14869
2022-08-30T08:02:40.119Z,14970
2022-08-30T08:03:40.075Z,14751
2022-08-30T08:04:40.080Z,16439
2022-08-30T08:05:40.070Z,15634
2022-08-30T08:06:40.076Z,15621
2022-08-30T08:07:40.078Z,15563
2022-08-30T08:08:40.085Z,15563
2022-08-30T08:09:40.088Z,15691
2022-08-30T08:10:40.089Z,15794
2022-08-30T08:11:40.086Z,16317
2022-08-30T08:12:40.100Z,16859
2022-08-30T08:13:52.774Z,16238
2022-08-30T08:14:40.092Z,15844
2022-08-30T08:15:40.103Z,15434
2022-08-30T08:16:40.095Z,15713
2022-08-30T08:17:40.112Z,15814
2022-08-30T08:18:40.083Z,15860
2022-08-30T08:19:40.104Z,16010
2022-08-30T08:20:40.089Z,16102
2022-08-30T08:21:40.131Z,16129
2022-08-30T08:22:40.379Z,16279
2022-08-30T08:23:40.097Z,16299
2022-08-30T08:24:40.096Z,16330
2022-08-30T08:25:40.098Z,16408
2022-08-30T08:26:40.921Z,16511
2022-08-30T08:27:40.099Z,16533
2022-08-30T08:28:40.109Z,16655
2022-08-30T08:29:40.084Z,16778
2022-08-30T08:30:40.460Z,16883
2022-08-30T08:31:40.286Z,16902
2022-08-30T08:32:40.109Z,16959
2022-08-30T08:33:40.091Z,17127
2022-08-30T08:34:40.113Z,17346
2022-08-30T08:35:40.079Z,17541
2022-08-30T08:36:40.093Z,17646
2022-08-30T08:37:40.117Z,17591
2022-08-30T08:38:40.103Z,17132
2022-08-30T08:39:40.099Z,9470
2022-08-30T08:40:40.140Z,8428
2022-08-30T08:41:40.113Z,18135
2022-08-30T08:42:40.109Z,10369
2022-08-30T08:43:40.091Z,18032
2022-08-30T08:44:40.123Z,18365
2022-08-30T08:45:40.075Z,18284
2022-08-30T08:46:40.161Z,18207
2022-08-30T08:47:40.112Z,18336
2022-08-30T08:48:58.510Z,18408
2022-08-30T08:49:40.118Z,18249
2022-08-30T08:50:40.100Z,18308
2022-08-30T08:51:40.086Z,18363
2022-08-30T08:52:40.107Z,18463
2022-08-30T08:54:40.099Z,18577
2022-08-30T08:55:40.146Z,18752
2022-08-30T08:56:40.096Z,18651
2022-08-30T08:57:40.147Z,18763
2022-08-30T08:58:40.094Z,18498
2022-08-30T08:59:40.093Z,18830
2022-08-30T09:00:40.077Z,18968
2022-08-30T09:01:40.103Z,19091
2022-08-30T09:02:40.078Z,19056
2022-08-30T09:03:40.081Z,19025
2022-08-30T09:04:40.139Z,19090
2022-08-30T09:05:40.075Z,19152
2022-08-30T09:06:45.363Z,19176
2022-08-30T09:07:40.232Z,19149
2022-08-30T09:08:40.071Z,19149
2022-08-30T09:09:40.077Z,19392
2022-08-30T09:10:50.458Z,8640
2022-08-30T09:11:40.211Z,8703
2022-08-30T09:12:40.980Z,7175
2022-08-30T09:13:40.078Z,7356
2022-08-30T09:14:44.316Z,7162
2022-08-30T09:15:40.249Z,10893
2022-08-30T09:16:40.094Z,16780
2022-08-30T09:17:40.093Z,10793
2022-08-30T09:18:40.113Z,20223
2022-08-30T09:19:40.096Z,20140
2022-08-30T09:20:40.084Z,20041
2022-08-30T09:21:40.087Z,19889
2022-08-30T09:22:40.072Z,19934
2022-08-30T09:23:40.089Z,19980
2022-08-30T09:24:40.078Z,20162
2022-08-30T09:25:41.766Z,20109
2022-08-30T09:26:40.087Z,19967
2022-08-30T09:27:40.085Z,19998
2022-08-30T09:28:40.098Z,19337
2022-08-30T09:29:40.077Z,18387
2022-08-30T09:30:40.133Z,20177
2022-08-30T09:31:40.105Z,20374
2022-08-30T09:32:40.088Z,20453
2022-08-30T09:33:40.089Z,20761
2022-08-30T09:34:40.145Z,21123
2022-08-30T09:35:40.067Z,19067
2022-08-30T09:36:40.064Z,13177
2022-08-30T09:37:40.103Z,9953
2022-08-30T09:38:40.096Z,10226
2022-08-30T09:39:40.077Z,10607
2022-08-30T09:40:40.260Z,11291
2022-08-30T09:41:40.085Z,11337
2022-08-30T09:42:40.074Z,11508
2022-08-30T09:43:40.089Z,10699
2022-08-30T09:44:40.084Z,10159
2022-08-30T09:45:40.074Z,10668
2022-08-30T09:46:40.143Z,22558
2022-08-30T09:47:40.077Z,12229
2022-08-30T09:48:40.103Z,11201
2022-08-30T09:49:40.077Z,15584
2022-08-30T09:50:40.069Z,12513
2022-08-30T09:51:40.190Z,19021
2022-08-30T09:52:40.078Z,21410
2022-08-30T09:53:42.477Z,20885
2022-08-30T09:54:40.080Z,20949
2022-08-30T09:55:40.078Z,19058
2022-08-30T09:56:40.086Z,11308
2022-08-30T09:57:40.084Z,15624
2022-08-30T09:58:40.095Z,11221
2022-08-30T09:59:40.072Z,10253
2022-08-30T10:00:40.086Z,10036
2022-08-30T10:01:40.132Z,9909
2022-08-30T10:02:40.083Z,9840
2022-08-30T10:03:40.627Z,9566
2022-08-30T10:04:40.082Z,14668
2022-08-30T10:05:40.103Z,10836
2022-08-30T10:06:40.071Z,8417
2022-08-30T10:07:40.073Z,9295
2022-08-30T10:08:40.080Z,9295
2022-08-30T10:09:40.069Z,9051
2022-08-30T10:10:43.982Z,9442
2022-08-30T10:11:40.059Z,8788
2022-08-30T10:12:40.065Z,8567
2022-08-30T10:13:40.080Z,9081
2022-08-30T10:14:40.065Z,19615
2022-08-30T10:15:40.061Z,18839
2022-08-30T10:16:40.068Z,19866
2022-08-30T10:17:40.152Z,19847
2022-08-30T10:18:40.104Z,19917
2022-08-30T10:19:40.066Z,19711
2022-08-30T10:20:40.129Z,19783
2022-08-30T10:21:40.066Z,20164
2022-08-30T10:22:40.083Z,20072
2022-08-30T10:23:40.096Z,19735
2022-08-30T10:24:40.071Z,21034
2022-08-30T10:25:40.083Z,20693
2022-08-30T10:26:40.082Z,20597
2022-08-30T10:27:40.075Z,20579
2022-08-30T10:28:40.092Z,20651
2022-08-30T10:29:43.278Z,20571
2022-08-30T10:30:40.078Z,20525
2022-08-30T10:31:40.081Z,20837
2022-08-30T10:32:40.074Z,20876
2022-08-30T10:33:40.083Z,20986
2022-08-30T10:34:40.074Z,20995
2022-08-30T10:35:40.100Z,21556
2022-08-30T10:36:40.080Z,20385
2022-08-30T10:37:40.074Z,20695
2022-08-30T10:38:40.084Z,18793
2022-08-30T10:39:40.071Z,10336
2022-08-30T10:40:40.150Z,13918
2022-08-30T10:41:40.074Z,9875
2022-08-30T10:42:40.330Z,8515
2022-08-30T10:43:40.077Z,7612
2022-08-30T10:44:41.250Z,7123
2022-08-30T10:45:40.059Z,6805
2022-08-30T10:46:40.083Z,6384
2022-08-30T10:47:40.081Z,6195
2022-08-30T10:48:40.090Z,5994
2022-08-30T10:49:40.498Z,5971
2022-08-30T10:50:41.260Z,6115
2022-08-30T10:51:40.074Z,6165
2022-08-30T10:52:40.067Z,6272
2022-08-30T10:53:40.095Z,6351
2022-08-30T10:54:40.090Z,6277
2022-08-30T10:55:40.080Z,6392
2022-08-30T10:56:40.083Z,6401
2022-08-30T10:57:42.866Z,6335
2022-08-30T10:58:40.088Z,6406
2022-08-30T10:59:40.077Z,6554
2022-08-30T11:00:40.085Z,7050
2022-08-30T11:01:46.825Z,7623
2022-08-30T11:02:40.084Z,8139
2022-08-30T11:03:40.091Z,8274
2022-08-30T11:04:40.086Z,8493
2022-08-30T11:05:40.731Z,9138
2022-08-30T11:06:40.082Z,9592
2022-08-30T11:07:40.128Z,9938
2022-08-30T11:08:40.330Z,9938
2022-08-30T11:09:40.083Z,14301
2022-08-30T11:10:40.089Z,10262
2022-08-30T11:11:40.832Z,10353
2022-08-30T11:12:40.090Z,13521
2022-08-30T11:13:40.108Z,12789
2022-08-30T11:14:40.082Z,13798
2022-08-30T11:15:40.065Z,12119
2022-08-30T11:16:40.111Z,16985
2022-08-30T11:17:40.074Z,13289
2022-08-30T11:18:40.077Z,14765
2022-08-30T11:19:40.797Z,20122
2022-08-30T11:20:40.091Z,18400
2022-08-30T11:21:40.071Z,18057
2022-08-30T11:22:40.071Z,18052
2022-08-30T11:23:40.091Z,13204
2022-08-30T11:24:40.069Z,17464
2022-08-30T11:25:40.072Z,16144
2022-08-30T11:26:40.102Z,11608
2022-08-30T11:27:40.080Z,11424
2022-08-30T11:28:40.103Z,10753
2022-08-30T11:29:40.090Z,10305
2022-08-30T11:30:40.084Z,10135
2022-08-30T11:31:40.087Z,10189
2022-08-30T11:32:40.082Z,10351
2022-08-30T11:33:40.093Z,10814
2022-08-30T11:34:40.085Z,10740
2022-08-30T11:35:40.349Z,10476
2022-08-30T11:36:40.088Z,10321
2022-08-30T11:37:40.094Z,10331
2022-08-30T11:38:40.091Z,10729
2022-08-30T11:39:40.101Z,11997
2022-08-30T11:40:40.078Z,13801
2022-08-30T11:41:42.610Z,13169
2022-08-30T11:43:40.309Z,11315
2022-08-30T11:44:40.088Z,11451
2022-08-30T11:45:40.109Z,12292
2022-08-30T11:46:40.106Z,12471
2022-08-30T11:47:40.076Z,15969
2022-08-30T11:48:40.108Z,15252
2022-08-30T11:49:40.091Z,17504
2022-08-30T11:50:40.087Z,17025
2022-08-30T11:51:40.086Z,17956
2022-08-30T11:52:40.138Z,13868
2022-08-30T11:53:40.128Z,19386
2022-08-30T11:54:40.083Z,14037
2022-08-30T11:55:40.084Z,15947
2022-08-30T11:56:40.082Z,16227
2022-08-30T11:57:40.080Z,12283
2022-08-30T11:58:40.108Z,12865
2022-08-30T11:59:40.087Z,16599
2022-08-30T12:00:40.855Z,15086
2022-08-30T12:01:49.903Z,15993
2022-08-30T12:02:40.205Z,20170
2022-08-30T12:03:40.233Z,19593
2022-08-30T12:04:40.081Z,20354
2022-08-30T12:05:40.108Z,19742
2022-08-30T12:06:40.079Z,20286
2022-08-30T12:07:40.087Z,21550
2022-08-30T12:08:40.096Z,21550
2022-08-30T12:09:40.091Z,18979
2022-08-30T12:10:40.079Z,19394
2022-08-30T12:11:40.082Z,19016
2022-08-30T12:12:40.114Z,13048
2022-08-30T12:13:40.328Z,13396
2022-08-30T12:14:41.072Z,13851
2022-08-30T12:15:40.085Z,13289
2022-08-30T12:16:40.146Z,12382
2022-08-30T12:17:40.085Z,11991
2022-08-30T12:18:40.640Z,12152
2022-08-30T12:19:41.408Z,13412
2022-08-30T12:20:40.077Z,12076
2022-08-30T12:21:44.120Z,11641
2022-08-30T12:22:40.063Z,11044
2022-08-30T12:23:44.208Z,10524
2022-08-30T12:24:40.082Z,10445
2022-08-30T12:25:40.065Z,10989
2022-08-30T12:26:41.153Z,12751
2022-08-30T12:27:40.062Z,13674
2022-08-30T12:28:42.127Z,13483
2022-08-30T12:29:40.062Z,17407
2022-08-30T12:30:40.067Z,16900
2022-08-30T12:31:40.129Z,18850
2022-08-30T12:32:40.063Z,16028
2022-08-30T12:33:41.212Z,12410
2022-08-30T12:34:40.075Z,13025
2022-08-30T12:35:40.099Z,11980
2022-08-30T12:36:40.083Z,12743
2022-08-30T12:37:42.305Z,22805
2022-08-30T12:38:40.085Z,18990
2022-08-30T12:39:40.088Z,12080
2022-08-30T12:40:40.130Z,11461
2022-08-30T12:41:43.489Z,11427
2022-08-30T12:42:40.081Z,11566
2022-08-30T12:43:41.368Z,12251
2022-08-30T12:44:40.082Z,18306
2022-08-30T12:45:40.177Z,14734
2022-08-30T12:46:40.087Z,18844
2022-08-30T12:47:40.086Z,14688
2022-08-30T12:48:40.096Z,15663
2022-08-30T12:49:40.087Z,13737
2022-08-30T12:50:40.097Z,10423
2022-08-30T12:51:41.201Z,11245
2022-08-30T12:52:40.079Z,10736
2022-08-30T12:53:40.095Z,9322
2022-08-30T12:54:40.079Z,8806
2022-08-30T12:55:40.078Z,8961
2022-08-30T12:56:49.990Z,9050
2022-08-30T12:57:40.085Z,9586
2022-08-30T12:58:40.103Z,13822
2022-08-30T12:59:40.086Z,12607
2022-08-30T13:00:40.126Z,19945
2022-08-30T13:01:40.194Z,19936
2022-08-30T13:02:40.081Z,17880
2022-08-30T13:03:40.103Z,17431
2022-08-30T13:04:40.098Z,11228
2022-08-30T13:05:44.363Z,12506
2022-08-30T13:06:40.087Z,13619
2022-08-30T13:07:40.112Z,16098
2022-08-30T13:08:40.090Z,16098
2022-08-30T13:09:40.082Z,10659
2022-08-30T13:10:40.085Z,10957
2022-08-30T13:11:40.079Z,13020
2022-08-30T13:12:40.086Z,13153
2022-08-30T13:13:40.095Z,10767
2022-08-30T13:14:42.395Z,8854
2022-08-30T13:15:40.084Z,8244
2022-08-30T13:16:44.661Z,8104
2022-08-30T13:17:40.094Z,8086
2022-08-30T13:18:40.159Z,8089
2022-08-30T13:19:40.090Z,8248
2022-08-30T13:20:40.110Z,8644
2022-08-30T13:21:40.089Z,9085
2022-08-30T13:22:40.081Z,8981
2022-08-30T13:23:40.094Z,8992
2022-08-30T13:24:40.075Z,9715
2022-08-30T13:25:40.085Z,10124
2022-08-30T13:26:40.086Z,9573
2022-08-30T13:27:40.081Z,9254
2022-08-30T13:28:40.096Z,8491
2022-08-30T13:29:40.080Z,7472
2022-08-30T13:30:40.078Z,6749
2022-08-30T13:31:40.145Z,6482
2022-08-30T13:32:40.080Z,6403
2022-08-30T13:33:40.081Z,6438
2022-08-30T13:34:40.066Z,6740
2022-08-30T13:35:40.087Z,7282
2022-08-30T13:36:40.065Z,8100
2022-08-30T13:37:50.216Z,11577
2022-08-30T13:38:40.073Z,18098
2022-08-30T13:39:40.071Z,13501
2022-08-30T13:40:40.159Z,13650
2022-08-30T13:41:40.075Z,15372
2022-08-30T13:42:40.070Z,13038
2022-08-30T13:44:11.727Z,11363
2022-08-30T13:44:41.542Z,11274
2022-08-30T13:45:41.614Z,13635
2022-08-30T13:46:40.316Z,17219
2022-08-30T13:47:40.094Z,11564
2022-08-30T13:48:40.091Z,17315
2022-08-30T13:49:43.805Z,19442
2022-08-30T13:50:40.102Z,16502
2022-08-30T13:51:40.080Z,14273
2022-08-30T13:52:40.086Z,19797
2022-08-30T13:53:54.313Z,19099
2022-08-30T13:54:40.089Z,13674
2022-08-30T13:55:40.710Z,10371
2022-08-30T13:56:40.076Z,10274
2022-08-30T13:57:56.137Z,10810
2022-08-30T13:58:40.081Z,9663
2022-08-30T13:59:40.082Z,8696
2022-08-30T14:00:40.111Z,8134
2022-08-30T14:02:08.301Z,7829
2022-08-30T14:02:46.350Z,7783
2022-08-30T14:04:13.056Z,7828
2022-08-30T14:04:40.242Z,7796
2022-08-30T14:06:00.406Z,7831
2022-08-30T14:07:11.826Z,9374
2022-08-30T14:07:40.088Z,7798
2022-08-30T14:08:48.738Z,7798
2022-08-30T14:09:40.088Z,6797
2022-08-30T14:10:47.031Z,6419
2022-08-30T14:11:40.085Z,6547
2022-08-30T14:12:53.710Z,5861
2022-08-30T14:14:14.718Z,5431
2022-08-30T14:14:42.987Z,5078
2022-08-30T14:15:40.081Z,4703
2022-08-30T14:16:40.134Z,4366
2022-08-30T14:17:40.087Z,4086
2022-08-30T14:18:40.089Z,3920
2022-08-30T14:19:40.090Z,3684
2022-08-30T14:20:40.109Z,3573
2022-08-30T14:21:40.092Z,3463
2022-08-30T14:22:40.115Z,3446
2022-08-30T14:23:40.105Z,3432
2022-08-30T14:24:40.083Z,3376
2022-08-30T14:25:40.265Z,3358
2022-08-30T14:26:40.073Z,3367
2022-08-30T14:27:40.084Z,3443
2022-08-30T14:28:40.091Z,3526
2022-08-30T14:29:40.080Z,3671
2022-08-30T14:30:40.088Z,3859
2022-08-30T14:31:40.287Z,4161
2022-08-30T14:32:40.083Z,4619
2022-08-30T14:33:40.088Z,5175
2022-08-30T14:34:40.085Z,5387
2022-08-30T14:35:40.096Z,5632
2022-08-30T14:36:40.087Z,6095
2022-08-30T14:37:40.117Z,6644
2022-08-30T14:38:40.101Z,7874
2022-08-30T14:39:40.083Z,13831
2022-08-30T14:40:40.121Z,14550
2022-08-30T14:41:43.162Z,16603
2022-08-30T14:42:40.083Z,15560
2022-08-30T14:43:40.126Z,10609
2022-08-30T14:44:55.293Z,9457
2022-08-30T14:45:40.181Z,8132
2022-08-30T14:46:40.373Z,7890
2022-08-30T14:47:40.067Z,7802
2022-08-30T14:48:40.079Z,7881
2022-08-30T14:49:40.070Z,7601
2022-08-30T14:50:40.084Z,7238
2022-08-30T14:51:40.066Z,6488
2022-08-30T14:52:40.068Z,5927
2022-08-30T14:53:40.087Z,5571
2022-08-30T14:54:40.073Z,5376
2022-08-30T14:55:40.065Z,5315
2022-08-30T14:56:40.078Z,5295
2022-08-30T14:57:40.067Z,4984
2022-08-30T14:58:40.085Z,4757
2022-08-30T14:59:40.735Z,4536
2022-08-30T15:00:40.122Z,4396
2022-08-30T15:01:40.078Z,4414
2022-08-30T15:02:40.084Z,4582
2022-08-30T15:03:40.150Z,4672
2022-08-30T15:04:40.101Z,4766
2022-08-30T15:05:40.103Z,4788
2022-08-30T15:06:40.088Z,4991
2022-08-30T15:07:40.073Z,7212
2022-08-30T15:08:40.342Z,7212
2022-08-30T15:09:40.074Z,6338
2022-08-30T15:10:40.351Z,6346
2022-08-30T15:11:40.073Z,6136
2022-08-30T15:12:40.080Z,5912
2022-08-30T15:13:40.101Z,5761
2022-08-30T15:14:40.086Z,7166
2022-08-30T15:15:40.404Z,5417
2022-08-30T15:16:40.267Z,5043
2022-08-30T15:17:40.089Z,4926
2022-08-30T15:18:41.757Z,5072
2022-08-30T15:19:40.148Z,5341
2022-08-30T15:20:40.098Z,5378
2022-08-30T15:21:40.079Z,5302
2022-08-30T15:22:40.086Z,5205
2022-08-30T15:23:40.083Z,5229
2022-08-30T15:24:40.074Z,7208
2022-08-30T15:25:42.334Z,10235
2022-08-30T15:26:40.069Z,10955
2022-08-30T15:27:40.069Z,10725
2022-08-30T15:28:40.088Z,10456
2022-08-30T15:29:40.254Z,10202
2022-08-30T15:30:40.140Z,10550
2022-08-30T15:31:40.173Z,10172
2022-08-30T15:32:40.081Z,10017
2022-08-30T15:33:40.085Z,9523
2022-08-30T15:34:40.352Z,9179
2022-08-30T15:35:40.091Z,8893
2022-08-30T15:36:40.080Z,8714
2022-08-30T15:37:40.075Z,8462
2022-08-30T15:38:40.096Z,8226
2022-08-30T15:39:40.700Z,8137
2022-08-30T15:40:40.190Z,7979
2022-08-30T15:41:40.105Z,7833
2022-08-30T15:42:40.076Z,7472
2022-08-30T15:43:40.094Z,6876
2022-08-30T15:44:40.426Z,7459
2022-08-30T15:45:40.068Z,7162
2022-08-30T15:46:40.148Z,6471
2022-08-30T15:47:40.078Z,5041
2022-08-30T15:48:41.960Z,6862